sensor_id;sensor_type;location;lat;lon;timestamp;temperature;humidity
20803;DHT22;10562;-33.856;151.182;2023-02-18T00:02:26;29.70;99.90
20803;DHT22;10562;-33.856;151.182;2023-02-18T00:04:56;29.80;99.90
20803;DHT22;10562;-33.856;151.182;2023-02-18T00:07:28;29.60;99.90
20803;DHT22;10562;-33.856;151.182;2023-02-18T00:10:03;29.60;99.90
20803;DHT22;10562;-33.856;151.182;2023-02-18T00:12:34;29.80;99.90
20803;DHT22;10562;-33.856;151.182;2023-02-18T00:15:05;30.00;99.90
20803;DHT22;10562;-33.856;151.182;2023-02-18T00:17:38;30.20;99.90
20803;DHT22;10562;-33.856;151.182;2023-02-18T00:20:09;30.00;99.90
20803;DHT22;10562;-33.856;151.182;2023-02-18T00:22:40;30.00;99.90
20803;DHT22;10562;-33.856;151.182;2023-02-18T00:25:11;30.00;99.90
20803;DHT22;10562;-33.856;151.182;2023-02-18T00:27:42;30.20;99.90
20803;DHT22;10562;-33.856;151.182;2023-02-18T00:30:13;30.10;99.90
20803;DHT22;10562;-33.856;151.182;2023-02-18T00:32:45;30.10;99.90
20803;DHT22;10562;-33.856;151.182;2023-02-18T00:35:16;30.40;99.90
20803;DHT22;10562;-33.856;151.182;2023-02-18T00:37:47;30.40;99.90
20803;DHT22;10562;-33.856;151.182;2023-02-18T00:40:20;30.30;99.90
20803;DHT22;10562;-33.856;151.182;2023-02-18T00:42:51;30.20;99.90
20803;DHT22;10562;-33.856;151.182;2023-02-18T00:45:22;30.50;99.90
20803;DHT22;10562;-33.856;151.182;2023-02-18T00:47:54;30.40;99.90
20803;DHT22;10562;-33.856;151.182;2023-02-18T00:50:25;30.60;99.90
20803;DHT22;10562;-33.856;151.182;2023-02-18T00:52:56;30.30;99.90
20803;DHT22;10562;-33.856;151.182;2023-02-18T00:55:27;30.30;99.90
20803;DHT22;10562;-33.856;151.182;2023-02-18T00:57:58;30.40;99.90
20803;DHT22;10562;-33.856;151.182;2023-02-18T01:00:29;30.40;99.90
20803;DHT22;10562;-33.856;151.182;2023-02-18T01:03:02;30.50;99.90
20803;DHT22;10562;-33.856;151.182;2023-02-18T01:05:33;30.70;99.90
20803;DHT22;10562;-33.856;151.182;2023-02-18T01:08:04;30.90;99.90
20803;DHT22;10562;-33.856;151.182;2023-02-18T01:10:36;30.70;99.90
20803;DHT22;10562;-33.856;151.182;2023-02-18T01:13:09;30.50;99.90
20803;DHT22;10562;-33.856;151.182;2023-02-18T01:15:41;30.50;99.90
20803;DHT22;10562;-33.856;151.182;2023-02-18T01:18:15;30.50;99.90
20803;DHT22;10562;-33.856;151.182;2023-02-18T01:20:46;30.60;99.90
20803;DHT22;10562;-33.856;151.182;2023-02-18T01:23:17;30.80;99.90
20803;DHT22;10562;-33.856;151.182;2023-02-18T01:25:48;30.80;99.90
20803;DHT22;10562;-33.856;151.182;2023-02-18T01:28:19;30.70;99.90
20803;DHT22;10562;-33.856;151.182;2023-02-18T01:30:52;30.80;99.90
20803;DHT22;10562;-33.856;151.182;2023-02-18T01:33:25;31.20;99.90
20803;DHT22;10562;-33.856;151.182;2023-02-18T01:35:56;31.60;99.90
20803;DHT22;10562;-33.856;151.182;2023-02-18T01:38:28;31.70;99.90
20803;DHT22;10562;-33.856;151.182;2023-02-18T01:40:59;31.90;99.90
20803;DHT22;10562;-33.856;151.182;2023-02-18T01:43:30;32.00;99.90
20803;DHT22;10562;-33.856;151.182;2023-02-18T01:46:13;31.90;99.90
20803;DHT22;10562;-33.856;151.182;2023-02-18T01:48:48;31.90;99.90
20803;DHT22;10562;-33.856;151.182;2023-02-18T01:51:23;32.10;99.90
20803;DHT22;10562;-33.856;151.182;2023-02-18T01:53:58;32.20;99.90
20803;DHT22;10562;-33.856;151.182;2023-02-18T01:56:33;32.40;99.90
20803;DHT22;10562;-33.856;151.182;2023-02-18T01:59:08;32.50;99.90
20803;DHT22;10562;-33.856;151.182;2023-02-18T02:01:42;32.70;99.90
20803;DHT22;10562;-33.856;151.182;2023-02-18T02:04:16;32.60;99.90
20803;DHT22;10562;-33.856;151.182;2023-02-18T02:06:47;32.60;99.90
20803;DHT22;10562;-33.856;151.182;2023-02-18T02:09:19;32.50;99.90
20803;DHT22;10562;-33.856;151.182;2023-02-18T02:12:22;32.50;99.90
20803;DHT22;10562;-33.856;151.182;2023-02-18T02:15:21;32.50;99.90
20803;DHT22;10562;-33.856;151.182;2023-02-18T02:18:12;32.40;99.90
20803;DHT22;10562;-33.856;151.182;2023-02-18T02:27:18;32.40;99.90
20803;DHT22;10562;-33.856;151.182;2023-02-18T02:30:19;32.50;99.90
20803;DHT22;10562;-33.856;151.182;2023-02-18T02:33:25;32.70;99.90
20803;DHT22;10562;-33.856;151.182;2023-02-18T02:36:04;33.10;99.90
20803;DHT22;10562;-33.856;151.182;2023-02-18T02:38:47;33.00;99.90
20803;DHT22;10562;-33.856;151.182;2023-02-18T02:41:26;32.80;99.90
20803;DHT22;10562;-33.856;151.182;2023-02-18T02:44:05;32.90;99.90
20803;DHT22;10562;-33.856;151.182;2023-02-18T02:46:42;33.20;99.90
20803;DHT22;10562;-33.856;151.182;2023-02-18T02:49:21;33.30;99.90
20803;DHT22;10562;-33.856;151.182;2023-02-18T02:52:00;33.20;99.90
20803;DHT22;10562;-33.856;151.182;2023-02-18T02:54:33;33.10;99.90
20803;DHT22;10562;-33.856;151.182;2023-02-18T02:57:36;33.20;99.90
20803;DHT22;10562;-33.856;151.182;2023-02-18T03:00:02;33.20;99.90
20803;DHT22;10562;-33.856;151.182;2023-02-18T03:02:45;33.30;99.90
20803;DHT22;10562;-33.856;151.182;2023-02-18T03:05:29;33.40;99.90
20803;DHT22;10562;-33.856;151.182;2023-02-18T03:10:59;33.50;99.90
20803;DHT22;10562;-33.856;151.182;2023-02-18T03:13:44;33.40;99.90
20803;DHT22;10562;-33.856;151.182;2023-02-18T03:16:27;33.60;99.90
20803;DHT22;10562;-33.856;151.182;2023-02-18T03:19:05;33.60;99.90
20803;DHT22;10562;-33.856;151.182;2023-02-18T03:21:40;33.70;99.90
20803;DHT22;10562;-33.856;151.182;2023-02-18T03:24:15;33.60;99.90
20803;DHT22;10562;-33.856;151.182;2023-02-18T03:26:51;33.30;99.90
20803;DHT22;10562;-33.856;151.182;2023-02-18T03:29:23;33.40;99.90
20803;DHT22;10562;-33.856;151.182;2023-02-18T03:31:58;33.40;99.90
20803;DHT22;10562;-33.856;151.182;2023-02-18T03:34:31;33.30;99.90
20803;DHT22;10562;-33.856;151.182;2023-02-18T03:37:03;33.30;99.90
20803;DHT22;10562;-33.856;151.182;2023-02-18T03:39:39;33.60;99.90
20803;DHT22;10562;-33.856;151.182;2023-02-18T03:42:11;33.40;99.90
20803;DHT22;10562;-33.856;151.182;2023-02-18T03:44:42;33.10;99.90
20803;DHT22;10562;-33.856;151.182;2023-02-18T03:47:13;32.70;99.90
20803;DHT22;10562;-33.856;151.182;2023-02-18T03:49:44;32.80;99.90
20803;DHT22;10562;-33.856;151.182;2023-02-18T03:52:15;33.20;99.90
20803;DHT22;10562;-33.856;151.182;2023-02-18T03:54:48;33.30;99.90
20803;DHT22;10562;-33.856;151.182;2023-02-18T03:57:19;33.20;99.90
20803;DHT22;10562;-33.856;151.182;2023-02-18T03:59:50;33.10;99.90
20803;DHT22;10562;-33.856;151.182;2023-02-18T04:02:21;33.00;99.90
20803;DHT22;10562;-33.856;151.182;2023-02-18T04:04:52;33.10;99.90
20803;DHT22;10562;-33.856;151.182;2023-02-18T04:07:23;33.20;99.90
20803;DHT22;10562;-33.856;151.182;2023-02-18T04:09:56;33.20;99.90
20803;DHT22;10562;-33.856;151.182;2023-02-18T04:12:27;33.40;99.90
20803;DHT22;10562;-33.856;151.182;2023-02-18T04:14:58;33.40;99.90
20803;DHT22;10562;-33.856;151.182;2023-02-18T04:17:29;33.50;99.90
20803;DHT22;10562;-33.856;151.182;2023-02-18T04:20:01;33.70;99.90
20803;DHT22;10562;-33.856;151.182;2023-02-18T04:22:32;33.90;99.90
20803;DHT22;10562;-33.856;151.182;2023-02-18T04:25:06;34.10;99.90
20803;DHT22;10562;-33.856;151.182;2023-02-18T04:27:37;33.70;99.90
20803;DHT22;10562;-33.856;151.182;2023-02-18T04:30:08;33.90;99.90
20803;DHT22;10562;-33.856;151.182;2023-02-18T04:32:39;34.00;99.90
20803;DHT22;10562;-33.856;151.182;2023-02-18T04:35:10;34.10;99.90
20803;DHT22;10562;-33.856;151.182;2023-02-18T04:37:41;34.30;99.90
20803;DHT22;10562;-33.856;151.182;2023-02-18T04:40:13;34.10;99.90
20803;DHT22;10562;-33.856;151.182;2023-02-18T04:42:44;34.20;99.90
20803;DHT22;10562;-33.856;151.182;2023-02-18T04:45:15;34.10;99.90
20803;DHT22;10562;-33.856;151.182;2023-02-18T04:47:46;34.00;99.90
20803;DHT22;10562;-33.856;151.182;2023-02-18T04:50:17;33.90;99.90
20803;DHT22;10562;-33.856;151.182;2023-02-18T04:52:48;33.90;99.90
20803;DHT22;10562;-33.856;151.182;2023-02-18T04:55:20;33.20;99.90
20803;DHT22;10562;-33.856;151.182;2023-02-18T04:57:51;32.50;99.90
20803;DHT22;10562;-33.856;151.182;2023-02-18T05:00:22;32.10;99.90
20803;DHT22;10562;-33.856;151.182;2023-02-18T05:02:55;31.70;99.90
20803;DHT22;10562;-33.856;151.182;2023-02-18T05:05:26;30.90;99.90
20803;DHT22;10562;-33.856;151.182;2023-02-18T05:07:56;30.80;99.90
20803;DHT22;10562;-33.856;151.182;2023-02-18T05:10:30;30.50;99.90
20803;DHT22;10562;-33.856;151.182;2023-02-18T05:13:00;30.30;99.90
20803;DHT22;10562;-33.856;151.182;2023-02-18T05:15:32;30.30;99.90
20803;DHT22;10562;-33.856;151.182;2023-02-18T05:18:04;30.10;99.90
20803;DHT22;10562;-33.856;151.182;2023-02-18T05:20:35;29.80;99.90
20803;DHT22;10562;-33.856;151.182;2023-02-18T05:23:06;29.70;99.90
20803;DHT22;10562;-33.856;151.182;2023-02-18T05:25:38;29.40;99.90
20803;DHT22;10562;-33.856;151.182;2023-02-18T05:28:09;29.30;99.90
20803;DHT22;10562;-33.856;151.182;2023-02-18T05:30:40;29.20;99.90
20803;DHT22;10562;-33.856;151.182;2023-02-18T05:33:11;29.10;99.90
20803;DHT22;10562;-33.856;151.182;2023-02-18T05:35:42;28.90;99.90
20803;DHT22;10562;-33.856;151.182;2023-02-18T05:38:12;28.80;99.90
20803;DHT22;10562;-33.856;151.182;2023-02-18T05:40:45;28.70;99.90
20803;DHT22;10562;-33.856;151.182;2023-02-18T05:43:16;28.50;99.90
20803;DHT22;10562;-33.856;151.182;2023-02-18T05:45:47;28.40;99.90
20803;DHT22;10562;-33.856;151.182;2023-02-18T05:48:16;28.30;99.90
20803;DHT22;10562;-33.856;151.182;2023-02-18T05:50:47;28.30;99.90
20803;DHT22;10562;-33.856;151.182;2023-02-18T05:53:20;28.20;99.90
20803;DHT22;10562;-33.856;151.182;2023-02-18T05:55:53;28.00;99.90
20803;DHT22;10562;-33.856;151.182;2023-02-18T05:58:24;27.90;99.90
20803;DHT22;10562;-33.856;151.182;2023-02-18T06:00:54;27.80;99.90
20803;DHT22;10562;-33.856;151.182;2023-02-18T06:03:25;27.70;99.90
20803;DHT22;10562;-33.856;151.182;2023-02-18T06:05:56;27.70;99.90
20803;DHT22;10562;-33.856;151.182;2023-02-18T06:08:27;27.70;99.90
20803;DHT22;10562;-33.856;151.182;2023-02-18T06:10:59;27.60;99.90
20803;DHT22;10562;-33.856;151.182;2023-02-18T06:13:30;27.50;99.90
20803;DHT22;10562;-33.856;151.182;2023-02-18T06:16:01;27.40;99.90
20803;DHT22;10562;-33.856;151.182;2023-02-18T06:18:32;27.40;99.90
20803;DHT22;10562;-33.856;151.182;2023-02-18T06:21:03;27.30;99.90
20803;DHT22;10562;-33.856;151.182;2023-02-18T06:23:35;27.30;99.90
20803;DHT22;10562;-33.856;151.182;2023-02-18T06:26:08;27.20;99.90
20803;DHT22;10562;-33.856;151.182;2023-02-18T06:28:39;27.10;99.90
20803;DHT22;10562;-33.856;151.182;2023-02-18T06:31:10;27.10;99.90
20803;DHT22;10562;-33.856;151.182;2023-02-18T06:33:40;27.50;99.90
20803;DHT22;10562;-33.856;151.182;2023-02-18T06:36:11;28.40;99.90
20803;DHT22;10562;-33.856;151.182;2023-02-18T06:38:44;29.00;99.90
20803;DHT22;10562;-33.856;151.182;2023-02-18T06:41:16;29.20;99.90
20803;DHT22;10562;-33.856;151.182;2023-02-18T06:43:47;29.10;99.90
20803;DHT22;10562;-33.856;151.182;2023-02-18T06:46:18;28.90;99.90
20803;DHT22;10562;-33.856;151.182;2023-02-18T06:48:49;28.70;99.90
20803;DHT22;10562;-33.856;151.182;2023-02-18T06:51:19;28.70;99.90
20803;DHT22;10562;-33.856;151.182;2023-02-18T06:53:50;28.60;99.90
20803;DHT22;10562;-33.856;151.182;2023-02-18T06:56:23;28.60;99.90
20803;DHT22;10562;-33.856;151.182;2023-02-18T06:58:54;28.40;99.90
20803;DHT22;10562;-33.856;151.182;2023-02-18T07:01:24;28.40;99.90
20803;DHT22;10562;-33.856;151.182;2023-02-18T07:03:55;28.30;99.90
20803;DHT22;10562;-33.856;151.182;2023-02-18T07:06:26;28.20;99.90
20803;DHT22;10562;-33.856;151.182;2023-02-18T07:08:57;28.20;99.90
20803;DHT22;10562;-33.856;151.182;2023-02-18T07:11:29;28.10;99.90
20803;DHT22;10562;-33.856;151.182;2023-02-18T07:14:00;28.10;99.90
20803;DHT22;10562;-33.856;151.182;2023-02-18T07:16:31;28.10;99.90
20803;DHT22;10562;-33.856;151.182;2023-02-18T07:19:02;28.10;99.90
20803;DHT22;10562;-33.856;151.182;2023-02-18T07:21:33;28.10;99.90
20803;DHT22;10562;-33.856;151.182;2023-02-18T07:24:04;28.00;99.90
20803;DHT22;10562;-33.856;151.182;2023-02-18T07:26:36;28.00;99.90
20803;DHT22;10562;-33.856;151.182;2023-02-18T07:29:07;27.90;99.90
20803;DHT22;10562;-33.856;151.182;2023-02-18T07:31:38;27.80;99.90
20803;DHT22;10562;-33.856;151.182;2023-02-18T07:34:09;27.70;99.90
20803;DHT22;10562;-33.856;151.182;2023-02-18T07:36:42;27.70;99.90
20803;DHT22;10562;-33.856;151.182;2023-02-18T07:39:14;27.70;99.90
20803;DHT22;10562;-33.856;151.182;2023-02-18T07:41:50;27.80;99.90
20803;DHT22;10562;-33.856;151.182;2023-02-18T07:44:21;27.80;99.90
20803;DHT22;10562;-33.856;151.182;2023-02-18T07:46:54;27.70;99.90
20803;DHT22;10562;-33.856;151.182;2023-02-18T07:49:25;27.50;99.90
20803;DHT22;10562;-33.856;151.182;2023-02-18T07:51:56;27.20;99.90
20803;DHT22;10562;-33.856;151.182;2023-02-18T07:54:26;26.90;99.90
20803;DHT22;10562;-33.856;151.182;2023-02-18T07:56:59;26.60;99.90
20803;DHT22;10562;-33.856;151.182;2023-02-18T07:59:30;26.40;99.90
20803;DHT22;10562;-33.856;151.182;2023-02-18T08:02:01;26.10;99.90
20803;DHT22;10562;-33.856;151.182;2023-02-18T08:04:32;25.60;99.90
20803;DHT22;10562;-33.856;151.182;2023-02-18T08:07:02;25.00;99.90
20803;DHT22;10562;-33.856;151.182;2023-02-18T08:09:33;24.50;99.90
20803;DHT22;10562;-33.856;151.182;2023-02-18T08:12:06;24.10;99.90
20803;DHT22;10562;-33.856;151.182;2023-02-18T08:14:37;23.60;99.90
20803;DHT22;10562;-33.856;151.182;2023-02-18T08:17:09;23.40;99.90
20803;DHT22;10562;-33.856;151.182;2023-02-18T08:19:40;23.10;99.90
20803;DHT22;10562;-33.856;151.182;2023-02-18T08:22:11;23.00;99.90
20803;DHT22;10562;-33.856;151.182;2023-02-18T08:24:42;22.90;99.90
20803;DHT22;10562;-33.856;151.182;2023-02-18T08:27:15;22.70;99.90
20803;DHT22;10562;-33.856;151.182;2023-02-18T08:29:46;22.70;99.90
20803;DHT22;10562;-33.856;151.182;2023-02-18T08:32:17;22.60;99.90
20803;DHT22;10562;-33.856;151.182;2023-02-18T08:34:48;22.60;99.90
20803;DHT22;10562;-33.856;151.182;2023-02-18T08:37:19;22.60;99.90
20803;DHT22;10562;-33.856;151.182;2023-02-18T08:39:50;22.50;99.90
20803;DHT22;10562;-33.856;151.182;2023-02-18T08:42:55;22.50;99.90
20803;DHT22;10562;-33.856;151.182;2023-02-18T08:45:26;22.40;99.90
20803;DHT22;10562;-33.856;151.182;2023-02-18T08:47:57;22.30;99.90
20803;DHT22;10562;-33.856;151.182;2023-02-18T08:50:28;22.30;99.90
20803;DHT22;10562;-33.856;151.182;2023-02-18T08:53:00;22.30;99.90
20803;DHT22;10562;-33.856;151.182;2023-02-18T08:55:42;22.40;99.90
20803;DHT22;10562;-33.856;151.182;2023-02-18T08:58:15;22.60;99.90
20803;DHT22;10562;-33.856;151.182;2023-02-18T09:00:59;22.70;99.90
20803;DHT22;10562;-33.856;151.182;2023-02-18T09:03:35;22.60;99.90
20803;DHT22;10562;-33.856;151.182;2023-02-18T09:06:11;22.50;99.90
20803;DHT22;10562;-33.856;151.182;2023-02-18T09:08:46;22.50;99.90
20803;DHT22;10562;-33.856;151.182;2023-02-18T09:11:17;22.50;99.90
20803;DHT22;10562;-33.856;151.182;2023-02-18T09:13:50;22.50;99.90
20803;DHT22;10562;-33.856;151.182;2023-02-18T09:16:21;22.40;99.90
20803;DHT22;10562;-33.856;151.182;2023-02-18T09:18:57;22.10;99.90
20803;DHT22;10562;-33.856;151.182;2023-02-18T09:21:30;22.00;99.90
20803;DHT22;10562;-33.856;151.182;2023-02-18T09:24:05;21.90;99.90
20803;DHT22;10562;-33.856;151.182;2023-02-18T09:26:37;22.00;99.90
20803;DHT22;10562;-33.856;151.182;2023-02-18T09:29:10;22.00;99.90
20803;DHT22;10562;-33.856;151.182;2023-02-18T09:31:42;22.00;99.90
20803;DHT22;10562;-33.856;151.182;2023-02-18T09:34:13;22.00;99.90
20803;DHT22;10562;-33.856;151.182;2023-02-18T09:36:45;22.00;99.90
20803;DHT22;10562;-33.856;151.182;2023-02-18T09:39:18;22.00;99.90
20803;DHT22;10562;-33.856;151.182;2023-02-18T09:41:51;22.00;99.90
20803;DHT22;10562;-33.856;151.182;2023-02-18T09:44:28;22.00;99.90
20803;DHT22;10562;-33.856;151.182;2023-02-18T09:47:02;22.20;99.90
20803;DHT22;10562;-33.856;151.182;2023-02-18T09:53:02;22.20;99.90
20803;DHT22;10562;-33.856;151.182;2023-02-18T09:56:05;22.20;99.90
20803;DHT22;10562;-33.856;151.182;2023-02-18T09:58:54;21.90;99.90
20803;DHT22;10562;-33.856;151.182;2023-02-18T10:01:37;21.80;99.90
20803;DHT22;10562;-33.856;151.182;2023-02-18T10:04:17;21.90;99.90
20803;DHT22;10562;-33.856;151.182;2023-02-18T10:07:08;22.10;99.90
20803;DHT22;10562;-33.856;151.182;2023-02-18T10:09:50;22.00;99.90
20803;DHT22;10562;-33.856;151.182;2023-02-18T10:12:33;22.00;99.90
20803;DHT22;10562;-33.856;151.182;2023-02-18T10:18:27;21.90;99.90
20803;DHT22;10562;-33.856;151.182;2023-02-18T10:21:06;21.80;99.90
20803;DHT22;10562;-33.856;151.182;2023-02-18T10:23:52;21.80;99.90
20803;DHT22;10562;-33.856;151.182;2023-02-18T10:26:30;21.80;99.90
20803;DHT22;10562;-33.856;151.182;2023-02-18T10:29:28;21.70;99.90
20803;DHT22;10562;-33.856;151.182;2023-02-18T10:32:20;21.70;99.90
20803;DHT22;10562;-33.856;151.182;2023-02-18T10:35:05;21.60;99.90
20803;DHT22;10562;-33.856;151.182;2023-02-18T10:41:33;21.80;99.90
20803;DHT22;10562;-33.856;151.182;2023-02-18T10:44:35;21.90;99.90
20803;DHT22;10562;-33.856;151.182;2023-02-18T10:47:22;21.90;99.90
20803;DHT22;10562;-33.856;151.182;2023-02-18T10:50:00;22.00;99.90
20803;DHT22;10562;-33.856;151.182;2023-02-18T10:52:39;22.10;99.90
20803;DHT22;10562;-33.856;151.182;2023-02-18T10:55:35;22.00;99.90
20803;DHT22;10562;-33.856;151.182;2023-02-18T10:58:30;22.00;99.90
20803;DHT22;10562;-33.856;151.182;2023-02-18T11:01:03;21.80;99.90
20803;DHT22;10562;-33.856;151.182;2023-02-18T11:03:42;21.80;99.90
20803;DHT22;10562;-33.856;151.182;2023-02-18T11:06:48;21.70;99.90
20803;DHT22;10562;-33.856;151.182;2023-02-18T11:09:32;21.60;99.90
20803;DHT22;10562;-33.856;151.182;2023-02-18T11:12:05;21.60;99.90
20803;DHT22;10562;-33.856;151.182;2023-02-18T11:14:41;21.60;99.90
20803;DHT22;10562;-33.856;151.182;2023-02-18T11:17:20;21.70;99.90
20803;DHT22;10562;-33.856;151.182;2023-02-18T11:19:54;21.70;99.90
20803;DHT22;10562;-33.856;151.182;2023-02-18T11:22:30;21.70;99.90
20803;DHT22;10562;-33.856;151.182;2023-02-18T11:25:19;21.60;99.90
20803;DHT22;10562;-33.856;151.182;2023-02-18T11:27:52;21.60;99.90
20803;DHT22;10562;-33.856;151.182;2023-02-18T11:30:26;21.60;99.90
20803;DHT22;10562;-33.856;151.182;2023-02-18T11:33:02;21.60;99.90
20803;DHT22;10562;-33.856;151.182;2023-02-18T11:35:36;21.70;99.90
20803;DHT22;10562;-33.856;151.182;2023-02-18T11:38:17;21.70;99.90
20803;DHT22;10562;-33.856;151.182;2023-02-18T11:40:55;21.70;99.90
20803;DHT22;10562;-33.856;151.182;2023-02-18T11:43:29;21.70;99.90
20803;DHT22;10562;-33.856;151.182;2023-02-18T11:46:10;21.70;99.90
20803;DHT22;10562;-33.856;151.182;2023-02-18T11:48:42;21.70;99.90
20803;DHT22;10562;-33.856;151.182;2023-02-18T11:51:17;21.70;99.90
20803;DHT22;10562;-33.856;151.182;2023-02-18T11:53:59;21.70;99.90
20803;DHT22;10562;-33.856;151.182;2023-02-18T11:56:31;21.80;99.90
20803;DHT22;10562;-33.856;151.182;2023-02-18T11:59:03;21.80;99.90
20803;DHT22;10562;-33.856;151.182;2023-02-18T12:01:42;21.90;99.90
20803;DHT22;10562;-33.856;151.182;2023-02-18T12:04:15;21.90;99.90
20803;DHT22;10562;-33.856;151.182;2023-02-18T12:06:51;21.90;99.90
20803;DHT22;10562;-33.856;151.182;2023-02-18T12:09:29;21.90;99.90
20803;DHT22;10562;-33.856;151.182;2023-02-18T12:12:04;21.90;99.90
20803;DHT22;10562;-33.856;151.182;2023-02-18T12:14:37;21.80;99.90
20803;DHT22;10562;-33.856;151.182;2023-02-18T12:17:27;21.80;99.90
20803;DHT22;10562;-33.856;151.182;2023-02-18T12:20:13;21.80;99.90
20803;DHT22;10562;-33.856;151.182;2023-02-18T12:22:55;21.80;99.90
20803;DHT22;10562;-33.856;151.182;2023-02-18T12:25:38;21.80;99.90
20803;DHT22;10562;-33.856;151.182;2023-02-18T12:28:24;21.80;99.90
20803;DHT22;10562;-33.856;151.182;2023-02-18T12:31:10;21.80;99.90
20803;DHT22;10562;-33.856;151.182;2023-02-18T12:33:52;21.80;99.90
20803;DHT22;10562;-33.856;151.182;2023-02-18T12:36:34;21.80;99.90
20803;DHT22;10562;-33.856;151.182;2023-02-18T12:39:14;21.80;99.90
20803;DHT22;10562;-33.856;151.182;2023-02-18T12:42:06;21.80;99.90
20803;DHT22;10562;-33.856;151.182;2023-02-18T12:44:43;21.80;99.90
20803;DHT22;10562;-33.856;151.182;2023-02-18T12:47:32;21.80;99.90
20803;DHT22;10562;-33.856;151.182;2023-02-18T12:53:32;21.70;99.90
20803;DHT22;10562;-33.856;151.182;2023-02-18T12:56:20;21.70;99.90
20803;DHT22;10562;-33.856;151.182;2023-02-18T12:58:58;21.80;99.90
20803;DHT22;10562;-33.856;151.182;2023-02-18T13:01:37;21.80;99.90
20803;DHT22;10562;-33.856;151.182;2023-02-18T13:04:36;21.90;99.90
20803;DHT22;10562;-33.856;151.182;2023-02-18T13:07:46;21.90;99.90
20803;DHT22;10562;-33.856;151.182;2023-02-18T13:10:33;22.00;99.90
20803;DHT22;10562;-33.856;151.182;2023-02-18T13:13:10;22.00;99.90
20803;DHT22;10562;-33.856;151.182;2023-02-18T13:15:47;22.00;99.90
20803;DHT22;10562;-33.856;151.182;2023-02-18T13:18:23;22.10;99.90
20803;DHT22;10562;-33.856;151.182;2023-02-18T13:20:57;22.00;99.90
20803;DHT22;10562;-33.856;151.182;2023-02-18T13:23:31;22.00;99.90
20803;DHT22;10562;-33.856;151.182;2023-02-18T13:26:04;22.00;99.90
20803;DHT22;10562;-33.856;151.182;2023-02-18T13:28:42;22.10;99.90
20803;DHT22;10562;-33.856;151.182;2023-02-18T13:31:32;22.10;99.90
20803;DHT22;10562;-33.856;151.182;2023-02-18T13:34:10;22.10;99.90
20803;DHT22;10562;-33.856;151.182;2023-02-18T13:36:53;22.10;99.90
20803;DHT22;10562;-33.856;151.182;2023-02-18T13:39:26;22.10;99.90
20803;DHT22;10562;-33.856;151.182;2023-02-18T13:42:21;22.10;99.90
20803;DHT22;10562;-33.856;151.182;2023-02-18T13:45:25;22.10;99.90
20803;DHT22;10562;-33.856;151.182;2023-02-18T13:47:59;22.10;99.90
20803;DHT22;10562;-33.856;151.182;2023-02-18T13:50:37;22.10;99.90
20803;DHT22;10562;-33.856;151.182;2023-02-18T13:53:24;22.10;99.90
20803;DHT22;10562;-33.856;151.182;2023-02-18T13:56:02;22.00;99.90
20803;DHT22;10562;-33.856;151.182;2023-02-18T13:58:41;22.00;99.90
20803;DHT22;10562;-33.856;151.182;2023-02-18T14:01:22;22.00;99.90
20803;DHT22;10562;-33.856;151.182;2023-02-18T14:04:02;22.00;99.90
20803;DHT22;10562;-33.856;151.182;2023-02-18T14:06:36;22.00;99.90
20803;DHT22;10562;-33.856;151.182;2023-02-18T14:09:50;22.00;99.90
20803;DHT22;10562;-33.856;151.182;2023-02-18T14:12:37;21.90;99.90
20803;DHT22;10562;-33.856;151.182;2023-02-18T14:15:46;21.90;99.90
20803;DHT22;10562;-33.856;151.182;2023-02-18T14:21:39;21.80;99.90
20803;DHT22;10562;-33.856;151.182;2023-02-18T14:24:11;21.90;99.90
20803;DHT22;10562;-33.856;151.182;2023-02-18T14:26:47;21.80;99.90
20803;DHT22;10562;-33.856;151.182;2023-02-18T14:29:26;21.90;99.90
20803;DHT22;10562;-33.856;151.182;2023-02-18T14:32:00;21.80;99.90
20803;DHT22;10562;-33.856;151.182;2023-02-18T14:34:56;21.90;99.90
20803;DHT22;10562;-33.856;151.182;2023-02-18T14:37:52;21.90;99.90
20803;DHT22;10562;-33.856;151.182;2023-02-18T14:40:39;21.90;99.90
20803;DHT22;10562;-33.856;151.182;2023-02-18T14:43:22;21.90;99.90
20803;DHT22;10562;-33.856;151.182;2023-02-18T14:46:13;21.80;99.90
20803;DHT22;10562;-33.856;151.182;2023-02-18T14:49:23;21.80;99.90
20803;DHT22;10562;-33.856;151.182;2023-02-18T14:51:58;21.80;99.90
20803;DHT22;10562;-33.856;151.182;2023-02-18T14:54:31;21.80;99.90
20803;DHT22;10562;-33.856;151.182;2023-02-18T14:57:05;21.80;99.90
20803;DHT22;10562;-33.856;151.182;2023-02-18T14:59:40;21.80;99.90
20803;DHT22;10562;-33.856;151.182;2023-02-18T15:02:20;21.80;99.90
20803;DHT22;10562;-33.856;151.182;2023-02-18T15:04:51;21.80;99.90
20803;DHT22;10562;-33.856;151.182;2023-02-18T15:07:23;21.80;99.90
20803;DHT22;10562;-33.856;151.182;2023-02-18T15:09:56;21.80;99.90
20803;DHT22;10562;-33.856;151.182;2023-02-18T15:12:28;21.70;99.90
20803;DHT22;10562;-33.856;151.182;2023-02-18T15:15:02;21.70;99.90
20803;DHT22;10562;-33.856;151.182;2023-02-18T15:17:35;21.70;99.90
20803;DHT22;10562;-33.856;151.182;2023-02-18T15:20:07;21.70;99.90
20803;DHT22;10562;-33.856;151.182;2023-02-18T15:22:38;21.70;99.90
20803;DHT22;10562;-33.856;151.182;2023-02-18T15:25:13;21.60;99.90
20803;DHT22;10562;-33.856;151.182;2023-02-18T15:27:44;21.60;99.90
20803;DHT22;10562;-33.856;151.182;2023-02-18T15:30:20;21.60;99.90
20803;DHT22;10562;-33.856;151.182;2023-02-18T15:32:52;21.60;99.90
20803;DHT22;10562;-33.856;151.182;2023-02-18T15:35:26;21.50;99.90
20803;DHT22;10562;-33.856;151.182;2023-02-18T15:37:59;21.50;99.90
20803;DHT22;10562;-33.856;151.182;2023-02-18T15:40:34;21.50;99.90
20803;DHT22;10562;-33.856;151.182;2023-02-18T15:43:07;21.50;99.90
20803;DHT22;10562;-33.856;151.182;2023-02-18T15:45:39;21.50;99.90
20803;DHT22;10562;-33.856;151.182;2023-02-18T15:48:22;21.50;99.90
20803;DHT22;10562;-33.856;151.182;2023-02-18T15:50:55;21.50;99.90
20803;DHT22;10562;-33.856;151.182;2023-02-18T15:53:26;21.50;99.90
20803;DHT22;10562;-33.856;151.182;2023-02-18T15:55:59;21.50;99.90
20803;DHT22;10562;-33.856;151.182;2023-02-18T15:58:35;21.50;99.90
20803;DHT22;10562;-33.856;151.182;2023-02-18T16:01:21;21.40;99.90
20803;DHT22;10562;-33.856;151.182;2023-02-18T16:03:54;21.40;99.90
20803;DHT22;10562;-33.856;151.182;2023-02-18T16:06:27;21.40;99.90
20803;DHT22;10562;-33.856;151.182;2023-02-18T16:09:01;21.40;99.90